createdAt,value
2019-02-08T00:00:13.558Z,53.08
2019-02-08T00:00:56.774Z,53.26
2019-02-08T00:01:29.213Z,53.76
2019-02-08T00:02:00.409Z,54.70
2019-02-08T00:02:31.688Z,55.52
2019-02-08T00:03:03.393Z,56.14
2019-02-08T00:03:34.710Z,56.91
2019-02-08T00:04:06.304Z,57.53
2019-02-08T00:04:37.616Z,58.25
2019-02-08T00:05:09.932Z,58.89
2019-02-08T00:05:41.472Z,59.55
2019-02-08T00:06:12.745Z,60.45
2019-02-08T00:06:44.032Z,61.61
2019-02-08T00:07:15.305Z,62.37
2019-02-08T00:07:46.591Z,62.54
2019-02-08T00:08:18.901Z,62.39
2019-02-08T00:08:50.187Z,61.90
2019-02-08T00:09:21.482Z,61.30
2019-02-08T00:09:53.090Z,60.70
2019-02-08T00:10:24.321Z,60.00
2019-02-08T00:10:55.603Z,59.41
2019-02-08T00:11:26.885Z,58.79
2019-02-08T00:11:58.115Z,58.23
2019-02-08T00:12:29.318Z,57.61
2019-02-08T00:13:00.525Z,57.08
2019-02-08T00:13:31.725Z,56.45
2019-02-08T00:14:02.955Z,56.03
2019-02-08T00:14:34.187Z,55.52
2019-02-08T00:15:08.779Z,54.99
2019-02-08T00:15:40.302Z,54.70
2019-02-08T00:16:11.557Z,53.92
2019-02-08T00:16:42.728Z,53.18
2019-02-08T00:17:14.023Z,52.95
2019-02-08T00:17:45.301Z,53.02
2019-02-08T00:18:16.626Z,53.24
2019-02-08T00:18:47.798Z,53.67
2019-02-08T00:19:19.050Z,54.31
2019-02-08T00:19:50.229Z,54.86
2019-02-08T00:20:22.074Z,55.54
2019-02-08T00:20:53.262Z,56.30
2019-02-08T00:21:24.904Z,57.03
2019-02-08T00:21:56.086Z,57.74
2019-02-08T00:22:27.344Z,58.40
2019-02-08T00:22:58.522Z,59.03
2019-02-08T00:23:29.878Z,59.72
2019-02-08T00:24:01.136Z,60.61
2019-02-08T00:24:32.394Z,61.68
2019-02-08T00:25:11.530Z,62.38
2019-02-08T00:25:42.772Z,62.63
2019-02-08T00:26:13.983Z,62.08
2019-02-08T00:26:45.181Z,61.50
2019-02-08T00:27:16.382Z,60.82
2019-02-08T00:27:47.606Z,60.14
2019-02-08T00:28:19.216Z,59.36
2019-02-08T00:28:50.442Z,58.66
2019-02-08T00:29:21.680Z,58.03
2019-02-08T00:29:52.984Z,57.45
2019-02-08T00:30:28.283Z,56.74
2019-02-08T00:30:59.517Z,56.34
2019-02-08T00:31:30.714Z,55.72
2019-02-08T00:32:01.972Z,55.12
2019-02-08T00:32:33.289Z,54.80
2019-02-08T00:33:04.531Z,54.20
2019-02-08T00:33:35.759Z,53.40
2019-02-08T00:34:07.418Z,53.12
2019-02-08T00:34:38.631Z,53.15
2019-02-08T00:35:09.923Z,53.57
2019-02-08T00:35:41.155Z,53.96
2019-02-08T00:36:12.407Z,54.54
2019-02-08T00:36:43.718Z,55.18
2019-02-08T00:37:14.930Z,55.85
2019-02-08T00:37:46.158Z,56.60
2019-02-08T00:38:17.382Z,57.38
2019-02-08T00:38:48.589Z,58.12
2019-02-08T00:39:19.798Z,58.76
2019-02-08T00:39:51.423Z,59.42
2019-02-08T00:40:23.900Z,60.30
2019-02-08T00:40:55.092Z,61.48
2019-02-08T00:41:26.385Z,62.20
2019-02-08T00:41:57.657Z,62.42
2019-02-08T00:42:28.891Z,62.18
2019-02-08T00:43:00.086Z,61.68
2019-02-08T00:43:31.407Z,61.03
2019-02-08T00:44:02.584Z,60.21
2019-02-08T00:44:33.828Z,59.54
2019-02-08T00:45:09.770Z,58.86
2019-02-08T00:45:41.134Z,58.34
2019-02-08T00:46:12.440Z,57.58
2019-02-08T00:46:44.120Z,57.01
2019-02-08T00:47:15.390Z,56.42
2019-02-08T00:47:46.680Z,55.84
2019-02-08T00:48:17.981Z,55.33
2019-02-08T00:48:49.283Z,54.89
2019-02-08T00:49:20.551Z,54.39
2019-02-08T00:49:51.833Z,53.68
2019-02-08T00:50:26.212Z,53.02
2019-02-08T00:50:57.507Z,52.79
2019-02-08T00:51:28.733Z,52.91
2019-02-08T00:52:00.029Z,53.26
2019-02-08T00:52:31.624Z,53.73
2019-02-08T00:53:02.874Z,54.39
2019-02-08T00:53:34.086Z,55.00
2019-02-08T00:54:05.407Z,55.58
2019-02-08T00:54:36.833Z,56.34
2019-02-08T00:55:08.488Z,57.03
2019-02-08T00:55:39.889Z,57.70
2019-02-08T00:56:11.186Z,58.39
2019-02-08T00:56:42.489Z,59.06
2019-02-08T00:57:14.062Z,59.66
2019-02-08T00:57:45.359Z,60.64
2019-02-08T00:58:17.030Z,61.59
2019-02-08T00:58:48.334Z,62.33
2019-02-08T00:59:19.643Z,62.50
2019-02-08T00:59:50.944Z,62.30
2019-02-08T01:00:22.345Z,61.76
2019-02-08T01:00:53.613Z,61.08
2019-02-08T01:01:24.824Z,60.44
2019-02-08T01:01:56.168Z,59.69
2019-02-08T01:02:27.387Z,59.04
2019-02-08T01:02:59.011Z,58.39
2019-02-08T01:03:30.238Z,57.83
2019-02-08T01:04:01.478Z,57.14
2019-02-08T01:04:32.634Z,56.53
2019-02-08T01:05:13.601Z,56.03
2019-02-08T01:05:44.827Z,55.66
2019-02-08T01:06:16.099Z,55.05
2019-02-08T01:06:47.389Z,54.72
2019-02-08T01:07:18.662Z,53.96
2019-02-08T01:07:50.592Z,53.26
2019-02-08T01:08:21.921Z,52.99
2019-02-08T01:08:53.203Z,53.14
2019-02-08T01:09:24.485Z,53.45
2019-02-08T01:09:56.019Z,53.91
2019-02-08T01:10:30.784Z,54.48
2019-02-08T01:11:02.437Z,55.06
2019-02-08T01:11:33.678Z,55.88
2019-02-08T01:12:04.900Z,56.73
2019-02-08T01:12:36.123Z,57.41
2019-02-08T01:13:07.423Z,58.04
2019-02-08T01:13:38.646Z,58.71
2019-02-08T01:14:09.875Z,59.48
2019-02-08T01:14:41.104Z,60.31
2019-02-08T01:15:14.422Z,61.43
2019-02-08T01:15:45.648Z,62.18
2019-02-08T01:16:16.942Z,62.31
2019-02-08T01:16:48.369Z,62.06
2019-02-08T01:17:20.569Z,61.48
2019-02-08T01:17:51.785Z,60.81
2019-02-08T01:18:23.996Z,60.11
2019-02-08T01:18:55.221Z,59.34
2019-02-08T01:19:26.421Z,58.59
2019-02-08T01:19:57.639Z,57.99
2019-02-08T01:20:28.854Z,57.30
2019-02-08T01:21:00.102Z,56.72
2019-02-08T01:21:31.267Z,56.16
2019-02-08T01:22:02.514Z,55.72
2019-02-08T01:22:34.115Z,55.26
2019-02-08T01:23:05.367Z,54.79
2019-02-08T01:23:41.311Z,54.10
2019-02-08T01:24:10.302Z,53.33
2019-02-08T01:24:41.480Z,53.06
2019-02-08T01:25:18.857Z,53.13
2019-02-08T01:25:50.029Z,53.28
2019-02-08T01:26:21.299Z,53.82
2019-02-08T01:26:52.474Z,54.41
2019-02-08T01:27:23.728Z,55.01
2019-02-08T01:27:54.928Z,55.62
2019-02-08T01:28:26.183Z,56.35
2019-02-08T01:28:57.378Z,57.09
2019-02-08T01:29:28.626Z,57.79
2019-02-08T01:29:59.825Z,58.49
2019-02-08T01:30:32.374Z,59.21
2019-02-08T01:31:03.597Z,60.00
2019-02-08T01:31:34.894Z,61.15
2019-02-08T01:32:06.230Z,61.89
2019-02-08T01:32:37.496Z,62.03
2019-02-08T01:33:08.760Z,61.82
2019-02-08T01:33:40.272Z,61.36
2019-02-08T01:34:11.564Z,60.76
2019-02-08T01:34:42.854Z,60.02
2019-02-08T01:35:16.344Z,59.36
2019-02-08T01:35:47.619Z,58.69
2019-02-08T01:36:18.994Z,57.89
2019-02-08T01:36:50.184Z,57.24
2019-02-08T01:37:22.428Z,56.75
2019-02-08T01:37:53.823Z,56.08
2019-02-08T01:38:25.098Z,55.57
2019-02-08T01:38:56.284Z,55.07
2019-02-08T01:39:27.549Z,54.65
2019-02-08T01:39:58.719Z,53.83
2019-02-08T01:40:37.694Z,53.13
2019-02-08T01:41:08.959Z,52.78
2019-02-08T01:41:40.313Z,52.97
2019-02-08T01:42:11.578Z,53.27
2019-02-08T01:42:42.737Z,53.74
2019-02-08T01:43:14.239Z,54.38
2019-02-08T01:43:45.411Z,54.95
2019-02-08T01:44:16.656Z,55.52
2019-02-08T01:44:47.827Z,56.36
2019-02-08T01:45:25.235Z,56.95
2019-02-08T01:45:57.435Z,57.47
2019-02-08T01:46:28.664Z,58.58
2019-02-08T01:46:59.851Z,59.21
2019-02-08T01:47:31.106Z,59.99
2019-02-08T01:48:03.604Z,61.13
2019-02-08T01:48:34.866Z,61.97
2019-02-08T01:49:06.040Z,62.18
2019-02-08T01:49:37.566Z,61.87
2019-02-08T01:50:18.919Z,61.27
2019-02-08T01:50:50.175Z,60.87
2019-02-08T01:51:21.387Z,59.84
2019-02-08T01:51:52.640Z,59.05
2019-02-08T01:52:23.852Z,58.25
2019-02-08T01:52:55.062Z,57.55
2019-02-08T01:53:26.295Z,56.76
2019-02-08T01:53:57.484Z,56.14
2019-02-08T01:54:28.708Z,55.67
2019-02-08T01:54:59.931Z,55.10
2019-02-08T01:55:31.147Z,54.63
2019-02-08T01:56:02.359Z,54.01
2019-02-08T01:56:33.581Z,53.25
2019-02-08T01:57:04.815Z,52.92
2019-02-08T01:57:36.011Z,53.10
2019-02-08T01:58:07.453Z,53.41
2019-02-08T01:58:38.649Z,53.92
2019-02-08T01:59:09.908Z,54.45
2019-02-08T01:59:41.116Z,55.01
2019-02-08T02:00:29.456Z,55.84
2019-02-08T02:01:00.682Z,56.20
2019-02-08T02:01:31.948Z,57.60
2019-02-08T02:02:03.127Z,58.48
2019-02-08T02:02:34.348Z,59.12
2019-02-08T02:03:07.155Z,59.86
2019-02-08T02:03:38.408Z,61.13
2019-02-08T02:04:09.611Z,62.02
2019-02-08T02:04:40.848Z,62.09
2019-02-08T02:05:12.030Z,61.94
2019-02-08T02:05:43.281Z,61.52
2019-02-08T02:06:14.458Z,61.00
2019-02-08T02:06:45.830Z,60.29
2019-02-08T02:07:17.012Z,59.65
2019-02-08T02:07:48.568Z,59.00
2019-02-08T02:08:19.748Z,58.39
2019-02-08T02:08:51.049Z,57.86
2019-02-08T02:09:22.215Z,57.24
2019-02-08T02:09:53.427Z,56.68
2019-02-08T02:10:33.887Z,56.18
2019-02-08T02:11:05.123Z,55.95
2019-02-08T02:11:37.328Z,55.39
2019-02-08T02:12:08.549Z,55.11
2019-02-08T02:12:39.782Z,54.72
2019-02-08T02:13:11.310Z,54.00
2019-02-08T02:13:42.573Z,53.50
2019-02-08T02:14:13.785Z,53.25
2019-02-08T02:14:45.004Z,53.34
2019-02-08T02:15:16.263Z,53.64
2019-02-08T02:15:47.473Z,54.10
2019-02-08T02:16:18.753Z,54.75
2019-02-08T02:16:49.940Z,55.27
2019-02-08T02:17:21.169Z,56.03
2019-02-08T02:17:52.417Z,56.81
2019-02-08T02:18:23.633Z,57.61
2019-02-08T02:18:54.927Z,58.28
2019-02-08T02:19:26.137Z,58.95
2019-02-08T02:19:57.350Z,59.75
2019-02-08T02:20:35.074Z,60.67
2019-02-08T02:21:06.290Z,61.87
2019-02-08T02:21:37.528Z,62.61
2019-02-08T02:22:08.720Z,62.75
2019-02-08T02:22:40.316Z,62.48
2019-02-08T02:23:14.000Z,61.99
2019-02-08T02:23:45.244Z,61.37
2019-02-08T02:24:16.417Z,60.60
2019-02-08T02:24:47.684Z,59.98
2019-02-08T02:25:18.992Z,59.23
2019-02-08T02:25:50.306Z,58.68
2019-02-08T02:26:21.518Z,58.08
2019-02-08T02:26:52.765Z,57.58
2019-02-08T02:27:23.953Z,57.05
2019-02-08T02:27:55.207Z,56.55
2019-02-08T02:28:26.413Z,56.13
2019-02-08T02:28:57.664Z,55.73
2019-02-08T02:29:28.959Z,55.37
2019-02-08T02:30:00.246Z,54.92
2019-02-08T02:30:35.125Z,54.65
2019-02-08T02:31:07.367Z,54.04
2019-02-08T02:31:38.589Z,53.45
2019-02-08T02:32:09.821Z,53.28
2019-02-08T02:32:41.016Z,53.49
2019-02-08T02:33:12.678Z,53.85
2019-02-08T02:33:44.858Z,54.40
2019-02-08T02:34:16.101Z,55.05
2019-02-08T02:34:47.271Z,55.84
2019-02-08T02:35:18.666Z,56.52
2019-02-08T02:35:49.936Z,57.24
2019-02-08T02:36:21.170Z,57.99
2019-02-08T02:36:52.380Z,58.64
2019-02-08T02:37:23.665Z,59.40
2019-02-08T02:37:54.952Z,60.28
2019-02-08T02:38:26.224Z,61.39
2019-02-08T02:38:57.504Z,62.20
2019-02-08T02:39:28.789Z,62.41
2019-02-08T02:40:00.361Z,62.22
2019-02-08T02:40:31.777Z,61.85
2019-02-08T02:41:03.071Z,61.15
2019-02-08T02:41:34.339Z,60.55
2019-02-08T02:42:05.564Z,59.90
2019-02-08T02:42:36.935Z,59.25
2019-02-08T02:43:08.156Z,58.55
2019-02-08T02:43:39.345Z,58.01
2019-02-08T02:44:10.584Z,57.36
2019-02-08T02:44:41.811Z,56.93
2019-02-08T02:45:27.273Z,56.46
2019-02-08T02:45:58.594Z,56.45
2019-02-08T02:46:29.877Z,55.69
2019-02-08T02:47:01.119Z,55.22
2019-02-08T02:47:32.397Z,54.77
2019-02-08T02:48:05.439Z,54.16
2019-02-08T02:48:36.958Z,53.49
2019-02-08T02:49:08.222Z,53.20
2019-02-08T02:49:39.413Z,53.33
2019-02-08T02:50:11.280Z,53.59
2019-02-08T02:50:42.495Z,54.02
2019-02-08T02:51:13.810Z,54.66
2019-02-08T02:51:45.001Z,55.33
2019-02-08T02:52:16.237Z,56.08
2019-02-08T02:52:47.424Z,56.80
2019-02-08T02:53:18.661Z,57.52
2019-02-08T02:53:49.866Z,58.47
2019-02-08T02:54:21.153Z,59.10
2019-02-08T02:54:52.346Z,59.88
2019-02-08T02:55:26.494Z,60.81
2019-02-08T02:55:57.682Z,61.91
2019-02-08T02:56:28.934Z,62.48
2019-02-08T02:57:00.181Z,62.63
2019-02-08T02:57:31.469Z,62.39
2019-02-08T02:58:03.671Z,61.86
2019-02-08T02:58:34.942Z,61.26
2019-02-08T02:59:06.236Z,60.55
2019-02-08T02:59:37.609Z,59.92
2019-02-08T03:00:16.793Z,59.33
2019-02-08T03:00:48.074Z,58.89
2019-02-08T03:01:19.360Z,58.19
2019-02-08T03:01:50.640Z,57.60
2019-02-08T03:02:21.881Z,57.00
2019-02-08T03:02:53.130Z,56.45
2019-02-08T03:03:24.445Z,56.01
2019-02-08T03:03:55.643Z,55.54
2019-02-08T03:04:26.908Z,55.16
2019-02-08T03:04:58.166Z,54.87
2019-02-08T03:05:29.416Z,54.57
2019-02-08T03:06:00.602Z,53.92
2019-02-08T03:06:31.831Z,53.44
2019-02-08T03:07:02.983Z,53.24
2019-02-08T03:07:34.224Z,53.35
2019-02-08T03:08:07.243Z,53.67
2019-02-08T03:08:39.778Z,54.15
2019-02-08T03:09:11.102Z,54.80
2019-02-08T03:09:42.359Z,55.54
2019-02-08T03:10:19.618Z,56.23
2019-02-08T03:10:50.926Z,56.75
2019-02-08T03:11:22.136Z,57.86
2019-02-08T03:11:53.310Z,58.62
2019-02-08T03:12:24.539Z,59.23
2019-02-08T03:12:55.769Z,60.08
2019-02-08T03:13:26.970Z,61.22
2019-02-08T03:13:59.220Z,61.99
2019-02-08T03:14:30.417Z,62.23
2019-02-08T03:15:01.631Z,61.99
2019-02-08T03:15:34.367Z,61.61
2019-02-08T03:16:05.576Z,60.96
2019-02-08T03:16:36.924Z,60.34
2019-02-08T03:17:08.190Z,59.63
2019-02-08T03:17:39.426Z,58.93
2019-02-08T03:18:10.644Z,58.35
2019-02-08T03:18:41.854Z,57.75
2019-02-08T03:19:13.065Z,57.21
2019-02-08T03:19:44.253Z,56.70
2019-02-08T03:20:23.325Z,56.15
2019-02-08T03:20:54.558Z,55.76
2019-02-08T03:21:26.763Z,55.22
2019-02-08T03:21:57.967Z,54.83
2019-02-08T03:22:29.229Z,54.49
2019-02-08T03:23:00.409Z,53.74
2019-02-08T03:23:31.640Z,53.22
2019-02-08T03:24:02.829Z,53.05
2019-02-08T03:24:34.087Z,53.19
2019-02-08T03:25:10.271Z,53.59
2019-02-08T03:25:41.515Z,54.05
2019-02-08T03:26:12.713Z,54.72
2019-02-08T03:26:43.966Z,55.39
2019-02-08T03:27:15.132Z,56.08
2019-02-08T03:27:46.472Z,56.86
2019-02-08T03:28:17.651Z,57.57
2019-02-08T03:28:48.932Z,58.28
2019-02-08T03:29:20.169Z,59.01
2019-02-08T03:29:51.445Z,59.75
2019-02-08T03:30:47.436Z,60.75
2019-02-08T03:31:18.714Z,62.29
2019-02-08T03:31:50.095Z,62.76
2019-02-08T03:32:21.350Z,62.59
2019-02-08T03:32:52.556Z,62.11
2019-02-08T03:33:23.913Z,61.49
2019-02-08T03:33:55.160Z,60.80
2019-02-08T03:34:26.384Z,60.13
2019-02-08T03:34:57.550Z,59.40
2019-02-08T03:35:28.803Z,58.78
2019-02-08T03:35:59.977Z,58.19
2019-02-08T03:36:31.202Z,57.64
2019-02-08T03:37:02.375Z,57.09
2019-02-08T03:37:33.645Z,56.59
2019-02-08T03:38:04.842Z,56.16
2019-02-08T03:38:36.087Z,55.76
2019-02-08T03:39:07.398Z,55.31
2019-02-08T03:39:40.068Z,55.02
2019-02-08T03:40:16.055Z,54.59
2019-02-08T03:40:47.293Z,54.03
2019-02-08T03:41:18.505Z,53.44
2019-02-08T03:41:49.738Z,53.22
2019-02-08T03:42:20.963Z,53.38
2019-02-08T03:42:52.221Z,53.77
2019-02-08T03:43:23.427Z,54.29
2019-02-08T03:43:54.697Z,54.97
2019-02-08T03:44:25.883Z,55.64
2019-02-08T03:44:57.136Z,56.38
2019-02-08T03:45:30.226Z,57.17
2019-02-08T03:46:01.490Z,57.85
2019-02-08T03:46:32.674Z,58.79
2019-02-08T03:47:03.916Z,59.61
2019-02-08T03:47:35.161Z,60.56
2019-02-08T03:48:07.084Z,61.90
2019-02-08T03:48:38.384Z,62.63
2019-02-08T03:49:10.055Z,62.81
2019-02-08T03:49:41.344Z,62.57
2019-02-08T03:50:16.749Z,62.12
2019-02-08T03:50:48.044Z,61.65
2019-02-08T03:51:19.344Z,60.86
2019-02-08T03:51:50.614Z,60.20
2019-02-08T03:52:21.894Z,59.71
2019-02-08T03:52:53.454Z,59.10
2019-02-08T03:53:24.628Z,58.47
2019-02-08T03:53:55.887Z,57.92
2019-02-08T03:54:27.072Z,57.39
2019-02-08T03:54:58.317Z,56.87
2019-02-08T03:55:29.518Z,56.51
2019-02-08T03:56:00.743Z,55.97
2019-02-08T03:56:32.924Z,55.57
2019-02-08T03:57:04.242Z,55.18
2019-02-08T03:57:35.427Z,54.76
2019-02-08T03:58:07.021Z,54.15
2019-02-08T03:58:38.209Z,53.43
2019-02-08T03:59:09.918Z,53.20
2019-02-08T03:59:41.077Z,53.27
2019-02-08T04:00:23.495Z,53.59
2019-02-08T04:00:56.646Z,53.91
2019-02-08T04:01:27.883Z,54.79
2019-02-08T04:01:59.079Z,55.60
2019-02-08T04:02:30.375Z,56.31
2019-02-08T04:03:01.572Z,56.99
2019-02-08T04:03:32.887Z,57.79
2019-02-08T04:04:12.785Z,58.45
2019-02-08T04:04:44.123Z,58.83
2019-02-08T04:05:15.451Z,59.79
2019-02-08T04:05:46.758Z,60.83
2019-02-08T04:06:18.031Z,61.96
2019-02-08T04:06:49.315Z,62.64
2019-02-08T04:07:20.605Z,62.77
2019-02-08T04:07:51.882Z,62.52
2019-02-08T04:08:23.140Z,62.06
2019-02-08T04:08:54.312Z,61.32
2019-02-08T04:09:25.627Z,60.65
2019-02-08T04:09:56.812Z,59.86
2019-02-08T04:10:28.066Z,59.12
2019-02-08T04:10:59.254Z,58.55
2019-02-08T04:11:30.524Z,57.91
2019-02-08T04:12:01.713Z,57.42
2019-02-08T04:12:33.046Z,56.88
2019-02-08T04:13:04.321Z,56.37
2019-02-08T04:13:35.679Z,55.81
2019-02-08T04:14:07.055Z,55.44
2019-02-08T04:14:38.354Z,55.00
2019-02-08T04:15:14.944Z,54.62
2019-02-08T04:15:46.401Z,53.98
2019-02-08T04:16:18.789Z,53.36
2019-02-08T04:16:50.119Z,53.20
2019-02-08T04:17:21.407Z,53.34
2019-02-08T04:17:52.765Z,53.69
2019-02-08T04:18:24.097Z,54.13
2019-02-08T04:18:55.450Z,54.89
2019-02-08T04:19:26.767Z,55.49
2019-02-08T04:19:57.969Z,56.22
2019-02-08T04:20:29.343Z,56.92
2019-02-08T04:21:00.517Z,57.60
2019-02-08T04:21:31.783Z,58.38
2019-02-08T04:22:02.970Z,59.00
2019-02-08T04:22:34.233Z,59.75
2019-02-08T04:23:05.509Z,60.68
2019-02-08T04:23:36.878Z,61.89
2019-02-08T04:24:08.217Z,62.65
2019-02-08T04:24:40.219Z,62.83
2019-02-08T04:25:15.878Z,62.62
2019-02-08T04:25:47.135Z,62.15
2019-02-08T04:26:18.410Z,61.39
2019-02-08T04:26:49.679Z,60.78
2019-02-08T04:27:20.868Z,60.09
2019-02-08T04:27:52.712Z,59.33
2019-02-08T04:28:23.920Z,58.72
2019-02-08T04:28:55.211Z,58.07
2019-02-08T04:29:26.487Z,57.57
2019-02-08T04:29:57.758Z,56.96
2019-02-08T04:30:32.922Z,56.57
2019-02-08T04:31:04.256Z,56.16
2019-02-08T04:31:35.620Z,55.65
2019-02-08T04:32:07.045Z,55.21
2019-02-08T04:32:38.355Z,54.99
2019-02-08T04:33:10.054Z,54.59
2019-02-08T04:33:41.311Z,53.91
2019-02-08T04:34:12.485Z,53.27
2019-02-08T04:34:43.715Z,53.09
2019-02-08T04:35:15.010Z,53.17
2019-02-08T04:35:46.301Z,53.53
2019-02-08T04:36:17.517Z,53.99
2019-02-08T04:36:48.782Z,54.63
2019-02-08T04:37:20.011Z,55.34
2019-02-08T04:37:51.255Z,56.03
2019-02-08T04:38:22.536Z,56.80
2019-02-08T04:38:53.812Z,57.61
2019-02-08T04:39:25.128Z,58.28
2019-02-08T04:39:56.437Z,58.99
2019-02-08T04:40:27.733Z,59.89
2019-02-08T04:40:59.004Z,60.90
2019-02-08T04:41:30.240Z,61.93
2019-02-08T04:42:01.489Z,62.57
2019-02-08T04:42:32.700Z,62.71
2019-02-08T04:43:03.926Z,62.40
2019-02-08T04:43:35.150Z,61.87
2019-02-08T04:44:06.356Z,61.27
2019-02-08T04:44:37.636Z,60.59
2019-02-08T04:45:10.654Z,59.97
2019-02-08T04:45:41.872Z,59.43
2019-02-08T04:46:13.172Z,58.79
2019-02-08T04:46:44.431Z,58.16
2019-02-08T04:47:15.736Z,57.61
2019-02-08T04:47:47.071Z,57.13
2019-02-08T04:48:18.327Z,56.68
2019-02-08T04:48:49.564Z,56.21
2019-02-08T04:49:20.776Z,55.74
2019-02-08T04:49:52.025Z,55.33
2019-02-08T04:50:25.722Z,54.86
2019-02-08T04:50:56.976Z,54.54
2019-02-08T04:51:28.147Z,53.92
2019-02-08T04:51:59.498Z,53.21
2019-02-08T04:52:30.691Z,52.97
2019-02-08T04:53:01.936Z,53.15
2019-02-08T04:53:33.854Z,53.42
2019-02-08T04:54:05.173Z,53.97
2019-02-08T04:54:38.330Z,54.50
2019-02-08T04:55:10.413Z,55.24
2019-02-08T04:55:41.735Z,55.94
2019-02-08T04:56:13.034Z,56.68
2019-02-08T04:56:44.306Z,57.44
2019-02-08T04:57:15.629Z,58.16
2019-02-08T04:57:46.928Z,58.86
2019-02-08T04:58:19.246Z,59.58
2019-02-08T04:58:50.485Z,60.51
2019-02-08T04:59:22.926Z,61.77
2019-02-08T04:59:54.209Z,62.38
2019-02-08T05:00:30.437Z,62.55
2019-02-08T05:01:01.707Z,62.56
2019-02-08T05:01:32.884Z,61.90
2019-02-08T05:02:04.136Z,61.33
2019-02-08T05:02:35.773Z,60.61
2019-02-08T05:03:07.407Z,60.02
2019-02-08T05:03:38.645Z,59.40
2019-02-08T05:04:10.196Z,58.85
2019-02-08T05:04:41.489Z,58.25
2019-02-08T05:05:12.793Z,57.77
2019-02-08T05:05:44.079Z,57.12
2019-02-08T05:06:15.376Z,56.68
2019-02-08T05:06:46.665Z,56.30
2019-02-08T05:07:17.931Z,55.76
2019-02-08T05:07:49.216Z,55.51
2019-02-08T05:08:20.482Z,55.16
2019-02-08T05:08:51.812Z,54.88
2019-02-08T05:09:23.133Z,54.56
2019-02-08T05:09:54.401Z,53.94
2019-02-08T05:10:30.020Z,53.34
2019-02-08T05:11:02.257Z,53.17
2019-02-08T05:11:33.466Z,53.43
2019-02-08T05:12:04.646Z,53.86
2019-02-08T05:12:35.814Z,54.41
2019-02-08T05:13:07.044Z,55.08
2019-02-08T05:13:38.216Z,55.83
2019-02-08T05:14:09.432Z,56.55
2019-02-08T05:14:40.650Z,57.27
2019-02-08T05:15:12.184Z,58.20
2019-02-08T05:15:43.404Z,58.86
2019-02-08T05:16:14.618Z,59.74
2019-02-08T05:16:45.834Z,60.69
2019-02-08T05:17:17.048Z,61.87
2019-02-08T05:17:48.315Z,62.58
2019-02-08T05:18:19.538Z,62.89
2019-02-08T05:18:50.766Z,62.73
2019-02-08T05:19:21.947Z,62.26
2019-02-08T05:19:53.171Z,61.70
2019-02-08T05:20:28.153Z,61.03
2019-02-08T05:20:59.480Z,60.46
2019-02-08T05:21:30.688Z,59.84
2019-02-08T05:22:01.932Z,59.26
2019-02-08T05:22:33.111Z,58.71
2019-02-08T05:23:04.357Z,58.18
2019-02-08T05:23:35.642Z,57.71
2019-02-08T05:24:07.038Z,57.17
2019-02-08T05:24:45.702Z,56.77
2019-02-08T05:25:11.367Z,56.36
2019-02-08T05:25:43.547Z,55.96
2019-02-08T05:26:14.771Z,55.58
2019-02-08T05:26:45.960Z,55.31
2019-02-08T05:27:17.178Z,55.03
2019-02-08T05:27:48.937Z,54.77
2019-02-08T05:28:20.226Z,54.21
2019-02-08T05:28:51.429Z,53.54
2019-02-08T05:29:22.685Z,53.32
2019-02-08T05:29:53.900Z,53.33
2019-02-08T05:30:30.004Z,53.80
2019-02-08T05:31:01.196Z,54.26
2019-02-08T05:31:32.442Z,54.92
2019-02-08T05:32:03.622Z,55.65
2019-02-08T05:32:35.740Z,56.37
2019-02-08T05:33:06.964Z,57.20
2019-02-08T05:33:38.327Z,57.90
2019-02-08T05:34:12.498Z,58.60
2019-02-08T05:34:44.656Z,59.15
2019-02-08T05:35:15.949Z,60.27
2019-02-08T05:35:48.739Z,61.48
2019-02-08T05:36:19.986Z,62.30
2019-02-08T05:36:51.315Z,62.59
2019-02-08T05:37:22.560Z,62.46
2019-02-08T05:37:53.782Z,62.04
2019-02-08T05:38:24.964Z,61.42
2019-02-08T05:38:56.168Z,60.78
2019-02-08T05:39:27.420Z,60.06
2019-02-08T05:39:58.648Z,59.43
2019-02-08T05:40:29.862Z,58.88
2019-02-08T05:41:02.132Z,58.36
2019-02-08T05:41:33.369Z,57.76
2019-02-08T05:42:04.632Z,57.34
2019-02-08T05:42:35.827Z,56.89
2019-02-08T05:43:07.005Z,56.38
2019-02-08T05:43:38.517Z,56.01
2019-02-08T05:44:09.729Z,55.68
2019-02-08T05:44:40.917Z,55.31
2019-02-08T05:45:18.112Z,55.07
2019-02-08T05:45:49.290Z,54.90
2019-02-08T05:46:20.591Z,54.56
2019-02-08T05:46:51.848Z,53.95
2019-02-08T05:47:23.151Z,53.45
2019-02-08T05:47:54.425Z,53.27
2019-02-08T05:48:25.730Z,53.38
2019-02-08T05:48:57.123Z,53.72
2019-02-08T05:49:28.369Z,54.34
2019-02-08T05:49:59.549Z,54.94
2019-02-08T05:50:30.779Z,55.65
2019-02-08T05:51:01.994Z,56.41
2019-02-08T05:51:33.246Z,57.21
2019-02-08T05:52:05.987Z,57.97
2019-02-08T05:52:37.802Z,58.68
2019-02-08T05:53:08.988Z,59.44
2019-02-08T05:53:40.239Z,60.46
2019-02-08T05:54:11.486Z,61.71
2019-02-08T05:54:42.765Z,62.48
2019-02-08T05:55:21.161Z,62.77
2019-02-08T05:55:52.439Z,62.74
2019-02-08T05:56:23.766Z,62.07
2019-02-08T05:56:55.045Z,61.51
2019-02-08T05:57:26.339Z,60.78
2019-02-08T05:57:57.645Z,60.01
2019-02-08T05:58:28.937Z,59.38
2019-02-08T05:59:00.259Z,58.75
2019-02-08T05:59:31.513Z,58.28
2019-02-08T06:00:11.135Z,57.69
2019-02-08T06:00:52.069Z,57.39
2019-02-08T06:01:23.242Z,56.82
2019-02-08T06:01:54.494Z,56.22
2019-02-08T06:02:25.695Z,55.72
2019-02-08T06:02:56.977Z,55.29
2019-02-08T06:03:28.241Z,54.92
2019-02-08T06:03:59.477Z,54.61
2019-02-08T06:04:30.710Z,53.91
2019-02-08T06:05:02.162Z,53.26
2019-02-08T06:05:33.622Z,52.99
2019-02-08T06:06:04.910Z,53.19
2019-02-08T06:06:36.265Z,53.50
2019-02-08T06:07:08.203Z,53.96
2019-02-08T06:07:41.229Z,54.68
2019-02-08T06:08:13.296Z,55.28
2019-02-08T06:08:44.589Z,56.08
2019-02-08T06:09:15.862Z,56.87
2019-02-08T06:09:47.123Z,57.72
2019-02-08T06:10:19.501Z,58.41
2019-02-08T06:10:51.926Z,58.92
2019-02-08T06:11:25.058Z,59.75
2019-02-08T06:11:56.316Z,60.69
2019-02-08T06:12:27.567Z,61.89
2019-02-08T06:12:58.756Z,62.57
2019-02-08T06:13:29.927Z,62.72
2019-02-08T06:14:01.101Z,62.43
2019-02-08T06:14:32.311Z,61.88
2019-02-08T06:15:09.220Z,61.23
2019-02-08T06:15:40.487Z,60.51
2019-02-08T06:16:11.669Z,59.70
2019-02-08T06:16:42.949Z,58.85
2019-02-08T06:17:14.124Z,58.22
2019-02-08T06:17:45.390Z,57.51
2019-02-08T06:18:16.575Z,56.94
2019-02-08T06:18:47.840Z,56.41
2019-02-08T06:19:19.030Z,55.77
2019-02-08T06:19:50.295Z,55.47
2019-02-08T06:20:23.973Z,55.08
2019-02-08T06:20:55.246Z,54.63
2019-02-08T06:21:26.407Z,53.88
2019-02-08T06:21:57.671Z,53.25
2019-02-08T06:22:28.859Z,53.03
2019-02-08T06:23:00.104Z,53.04
2019-02-08T06:23:31.269Z,53.32
2019-02-08T06:24:02.569Z,53.85
2019-02-08T06:24:33.814Z,54.30
2019-02-08T06:25:09.445Z,54.83
2019-02-08T06:25:40.849Z,55.41
2019-02-08T06:26:12.072Z,56.30
2019-02-08T06:26:43.291Z,57.09
2019-02-08T06:27:14.510Z,57.77
2019-02-08T06:27:45.729Z,58.45
2019-02-08T06:28:16.956Z,59.05
2019-02-08T06:28:48.179Z,59.87
2019-02-08T06:29:19.426Z,60.76
2019-02-08T06:29:50.719Z,61.75
2019-02-08T06:30:27.465Z,62.29
2019-02-08T06:30:59.696Z,62.48
2019-02-08T06:31:30.904Z,62.09
2019-02-08T06:32:02.121Z,61.50
2019-02-08T06:32:33.497Z,60.92
2019-02-08T06:33:05.109Z,60.16
2019-02-08T06:33:36.400Z,59.53
2019-02-08T06:34:07.957Z,58.90
2019-02-08T06:34:39.197Z,58.27
2019-02-08T06:35:11.164Z,57.57
2019-02-08T06:35:42.407Z,56.87
2019-02-08T06:36:13.550Z,56.32
2019-02-08T06:36:44.819Z,55.94
2019-02-08T06:37:15.998Z,55.42
2019-02-08T06:37:47.228Z,54.83
2019-02-08T06:38:18.415Z,54.08
2019-02-08T06:38:49.686Z,53.39
2019-02-08T06:39:20.866Z,53.07
2019-02-08T06:39:52.121Z,53.05
2019-02-08T06:40:32.405Z,53.30
2019-02-08T06:41:03.686Z,53.62
2019-02-08T06:41:34.900Z,54.47
2019-02-08T06:42:06.106Z,55.07
2019-02-08T06:42:37.495Z,55.68
2019-02-08T06:43:08.721Z,56.50
2019-02-08T06:43:40.222Z,57.22
2019-02-08T06:44:11.451Z,57.93
2019-02-08T06:44:42.665Z,58.64
2019-02-08T06:45:19.968Z,59.23
2019-02-08T06:45:51.146Z,60.10
2019-02-08T06:46:22.442Z,61.59
2019-02-08T06:46:53.634Z,62.15
2019-02-08T06:47:24.891Z,62.25
2019-02-08T06:47:56.087Z,61.96
2019-02-08T06:48:27.329Z,61.42
2019-02-08T06:48:58.502Z,60.85